sensor_id;sensor_type;location;lat;lon;timestamp;temperature;humidity
42365;DHT22;28498;54.400;18.566;2022-12-07T00:01:30;2.20;99.90
42365;DHT22;28498;54.400;18.566;2022-12-07T00:03:59;2.20;99.90
42365;DHT22;28498;54.400;18.566;2022-12-07T00:06:37;2.10;99.90
42365;DHT22;28498;54.400;18.566;2022-12-07T00:09:06;2.20;99.90
42365;DHT22;28498;54.400;18.566;2022-12-07T00:14:04;2.20;99.90
42365;DHT22;28498;54.400;18.566;2022-12-07T00:16:32;2.20;99.90
42365;DHT22;28498;54.400;18.566;2022-12-07T00:19:00;2.30;99.90
42365;DHT22;28498;54.400;18.566;2022-12-07T00:21:29;2.20;99.90
42365;DHT22;28498;54.400;18.566;2022-12-07T00:23:56;2.20;99.90
42365;DHT22;28498;54.400;18.566;2022-12-07T00:26:29;2.20;99.90
42365;DHT22;28498;54.400;18.566;2022-12-07T00:28:58;2.50;99.90
42365;DHT22;28498;54.400;18.566;2022-12-07T00:31:27;2.20;99.90
42365;DHT22;28498;54.400;18.566;2022-12-07T00:33:57;2.20;99.90
42365;DHT22;28498;54.400;18.566;2022-12-07T00:36:24;2.20;99.90
42365;DHT22;28498;54.400;18.566;2022-12-07T00:38:54;2.20;99.90
42365;DHT22;28498;54.400;18.566;2022-12-07T00:41:23;2.20;99.90
42365;DHT22;28498;54.400;18.566;2022-12-07T00:43:51;2.20;99.90
42365;DHT22;28498;54.400;18.566;2022-12-07T00:46:19;2.20;99.90
42365;DHT22;28498;54.400;18.566;2022-12-07T00:48:47;2.20;99.90
42365;DHT22;28498;54.400;18.566;2022-12-07T00:51:16;2.30;99.90
42365;DHT22;28498;54.400;18.566;2022-12-07T00:53:44;2.20;99.90
42365;DHT22;28498;54.400;18.566;2022-12-07T00:56:19;2.20;99.90
42365;DHT22;28498;54.400;18.566;2022-12-07T00:58:51;2.20;99.90
42365;DHT22;28498;54.400;18.566;2022-12-07T01:01:18;2.20;99.90
42365;DHT22;28498;54.400;18.566;2022-12-07T01:03:45;2.20;99.90
42365;DHT22;28498;54.400;18.566;2022-12-07T01:06:15;2.20;99.90
42365;DHT22;28498;54.400;18.566;2022-12-07T01:08:43;2.20;99.90
42365;DHT22;28498;54.400;18.566;2022-12-07T01:11:14;2.30;99.90
42365;DHT22;28498;54.400;18.566;2022-12-07T01:16:14;2.30;99.90
42365;DHT22;28498;54.400;18.566;2022-12-07T01:18:42;2.20;99.90
42365;DHT22;28498;54.400;18.566;2022-12-07T01:21:12;2.20;99.90
42365;DHT22;28498;54.400;18.566;2022-12-07T01:23:40;2.20;99.90
42365;DHT22;28498;54.400;18.566;2022-12-07T01:26:11;2.20;99.90
42365;DHT22;28498;54.400;18.566;2022-12-07T01:28:38;2.20;99.90
42365;DHT22;28498;54.400;18.566;2022-12-07T01:31:12;2.20;99.90
42365;DHT22;28498;54.400;18.566;2022-12-07T01:33:39;2.20;99.90
42365;DHT22;28498;54.400;18.566;2022-12-07T01:36:21;2.30;99.90
42365;DHT22;28498;54.400;18.566;2022-12-07T01:38:50;2.20;99.90
42365;DHT22;28498;54.400;18.566;2022-12-07T01:41:20;2.30;99.90
42365;DHT22;28498;54.400;18.566;2022-12-07T01:44:14;2.20;99.90
42365;DHT22;28498;54.400;18.566;2022-12-07T01:46:46;2.20;99.90
42365;DHT22;28498;54.400;18.566;2022-12-07T01:49:18;2.30;99.90
42365;DHT22;28498;54.400;18.566;2022-12-07T01:51:47;2.20;99.90
42365;DHT22;28498;54.400;18.566;2022-12-07T01:54:16;2.30;99.90
42365;DHT22;28498;54.400;18.566;2022-12-07T01:56:50;2.40;99.90
42365;DHT22;28498;54.400;18.566;2022-12-07T01:59:21;2.30;99.90
42365;DHT22;28498;54.400;18.566;2022-12-07T02:01:49;2.30;99.90
42365;DHT22;28498;54.400;18.566;2022-12-07T02:04:16;2.20;99.90
42365;DHT22;28498;54.400;18.566;2022-12-07T02:06:45;2.30;99.90
42365;DHT22;28498;54.400;18.566;2022-12-07T02:09:13;2.20;99.90
42365;DHT22;28498;54.400;18.566;2022-12-07T02:14:07;2.20;99.90
42365;DHT22;28498;54.400;18.566;2022-12-07T02:16:58;2.30;99.90
42365;DHT22;28498;54.400;18.566;2022-12-07T02:25:31;2.30;99.90
42365;DHT22;28498;54.400;18.566;2022-12-07T02:28:14;2.40;99.90
42365;DHT22;28498;54.400;18.566;2022-12-07T02:30:47;2.30;99.90
42365;DHT22;28498;54.400;18.566;2022-12-07T02:33:26;2.40;99.90
42365;DHT22;28498;54.400;18.566;2022-12-07T02:36:22;2.40;99.90
42365;DHT22;28498;54.400;18.566;2022-12-07T02:41:30;2.30;99.90
42365;DHT22;28498;54.400;18.566;2022-12-07T02:44:05;2.40;99.90
42365;DHT22;28498;54.400;18.566;2022-12-07T02:46:40;2.30;99.90
42365;DHT22;28498;54.400;18.566;2022-12-07T02:49:09;2.40;99.90
42365;DHT22;28498;54.400;18.566;2022-12-07T02:51:42;2.40;99.90
42365;DHT22;28498;54.400;18.566;2022-12-07T02:54:15;2.40;99.90
42365;DHT22;28498;54.400;18.566;2022-12-07T02:56:49;2.40;99.90
42365;DHT22;28498;54.400;18.566;2022-12-07T02:59:30;2.40;99.90
42365;DHT22;28498;54.400;18.566;2022-12-07T03:02:32;2.40;99.90
42365;DHT22;28498;54.400;18.566;2022-12-07T03:05:08;2.50;99.90
42365;DHT22;28498;54.400;18.566;2022-12-07T03:12:35;2.50;99.90
42365;DHT22;28498;54.400;18.566;2022-12-07T03:14:34;2.40;99.90
42365;DHT22;28498;54.400;18.566;2022-12-07T03:17:14;2.50;99.90
42365;DHT22;28498;54.400;18.566;2022-12-07T03:19:44;2.40;99.90
42365;DHT22;28498;54.400;18.566;2022-12-07T03:22:13;2.50;99.90
42365;DHT22;28498;54.400;18.566;2022-12-07T03:24:42;2.50;99.90
42365;DHT22;28498;54.400;18.566;2022-12-07T03:27:18;2.50;99.90
42365;DHT22;28498;54.400;18.566;2022-12-07T03:29:51;2.50;99.90
42365;DHT22;28498;54.400;18.566;2022-12-07T03:32:40;2.40;99.90
42365;DHT22;28498;54.400;18.566;2022-12-07T03:35:25;2.50;99.90
42365;DHT22;28498;54.400;18.566;2022-12-07T03:38:03;2.40;99.90
42365;DHT22;28498;54.400;18.566;2022-12-07T03:40:39;2.40;99.90
42365;DHT22;28498;54.400;18.566;2022-12-07T03:43:07;2.40;99.90
42365;DHT22;28498;54.400;18.566;2022-12-07T03:45:43;2.40;99.90
42365;DHT22;28498;54.400;18.566;2022-12-07T03:48:24;2.50;99.90
42365;DHT22;28498;54.400;18.566;2022-12-07T03:51:06;2.50;99.90
42365;DHT22;28498;54.400;18.566;2022-12-07T03:54:13;2.40;99.90
42365;DHT22;28498;54.400;18.566;2022-12-07T03:56:41;2.40;99.90
42365;DHT22;28498;54.400;18.566;2022-12-07T03:59:11;2.40;99.90
42365;DHT22;28498;54.400;18.566;2022-12-07T04:01:42;2.50;99.90
42365;DHT22;28498;54.400;18.566;2022-12-07T04:04:10;2.40;99.90
42365;DHT22;28498;54.400;18.566;2022-12-07T04:06:37;2.40;99.90
42365;DHT22;28498;54.400;18.566;2022-12-07T04:13:58;2.40;99.90
42365;DHT22;28498;54.400;18.566;2022-12-07T04:16:55;2.40;99.90
42365;DHT22;28498;54.400;18.566;2022-12-07T04:19:31;2.40;99.90
42365;DHT22;28498;54.400;18.566;2022-12-07T04:22:00;2.40;99.90
42365;DHT22;28498;54.400;18.566;2022-12-07T04:24:27;2.40;99.90
42365;DHT22;28498;54.400;18.566;2022-12-07T04:26:54;2.40;99.90
42365;DHT22;28498;54.400;18.566;2022-12-07T04:29:22;2.30;99.90
42365;DHT22;28498;54.400;18.566;2022-12-07T04:31:49;2.40;99.90
42365;DHT22;28498;54.400;18.566;2022-12-07T04:34:17;2.30;99.90
42365;DHT22;28498;54.400;18.566;2022-12-07T04:36:45;2.40;99.90
42365;DHT22;28498;54.400;18.566;2022-12-07T04:39:32;2.30;99.90
42365;DHT22;28498;54.400;18.566;2022-12-07T04:42:00;2.40;99.90
42365;DHT22;28498;54.400;18.566;2022-12-07T04:44:29;2.40;99.90
42365;DHT22;28498;54.400;18.566;2022-12-07T04:46:56;2.40;99.90
42365;DHT22;28498;54.400;18.566;2022-12-07T04:49:24;2.50;99.90
42365;DHT22;28498;54.400;18.566;2022-12-07T04:51:51;2.60;99.90
42365;DHT22;28498;54.400;18.566;2022-12-07T04:54:18;2.60;99.90
42365;DHT22;28498;54.400;18.566;2022-12-07T04:56:46;2.70;99.90
42365;DHT22;28498;54.400;18.566;2022-12-07T04:59:14;2.60;99.90
42365;DHT22;28498;54.400;18.566;2022-12-07T05:01:42;2.60;99.90
42365;DHT22;28498;54.400;18.566;2022-12-07T05:04:09;2.70;99.90
42365;DHT22;28498;54.400;18.566;2022-12-07T05:06:36;2.60;99.90
42365;DHT22;28498;54.400;18.566;2022-12-07T05:09:04;2.60;99.90
42365;DHT22;28498;54.400;18.566;2022-12-07T05:11:31;2.60;99.90
42365;DHT22;28498;54.400;18.566;2022-12-07T05:14:16;2.60;99.90
42365;DHT22;28498;54.400;18.566;2022-12-07T05:16:45;2.70;99.90
42365;DHT22;28498;54.400;18.566;2022-12-07T05:19:12;2.70;99.90
42365;DHT22;28498;54.400;18.566;2022-12-07T05:21:40;2.70;99.90
42365;DHT22;28498;54.400;18.566;2022-12-07T05:24:10;2.70;99.90
42365;DHT22;28498;54.400;18.566;2022-12-07T05:26:38;2.80;99.90
42365;DHT22;28498;54.400;18.566;2022-12-07T05:29:05;2.70;99.90
42365;DHT22;28498;54.400;18.566;2022-12-07T05:31:32;2.80;99.90
42365;DHT22;28498;54.400;18.566;2022-12-07T05:33:59;2.80;99.90
42365;DHT22;28498;54.400;18.566;2022-12-07T05:36:26;2.80;99.90
42365;DHT22;28498;54.400;18.566;2022-12-07T05:41:22;2.80;99.90
42365;DHT22;28498;54.400;18.566;2022-12-07T05:46:35;2.80;99.90
42365;DHT22;28498;54.400;18.566;2022-12-07T05:49:02;2.80;99.90
42365;DHT22;28498;54.400;18.566;2022-12-07T05:51:29;2.80;99.90
42365;DHT22;28498;54.400;18.566;2022-12-07T05:53:56;2.80;99.90
42365;DHT22;28498;54.400;18.566;2022-12-07T05:56:23;2.80;99.90
42365;DHT22;28498;54.400;18.566;2022-12-07T05:58:50;2.80;99.90
42365;DHT22;28498;54.400;18.566;2022-12-07T06:01:36;2.80;99.90
42365;DHT22;28498;54.400;18.566;2022-12-07T06:04:03;2.80;99.90
42365;DHT22;28498;54.400;18.566;2022-12-07T06:06:30;2.80;99.90
42365;DHT22;28498;54.400;18.566;2022-12-07T06:08:57;2.90;99.90
42365;DHT22;28498;54.400;18.566;2022-12-07T06:14:09;2.80;99.90
42365;DHT22;28498;54.400;18.566;2022-12-07T06:16:36;2.80;99.90
42365;DHT22;28498;54.400;18.566;2022-12-07T06:19:03;2.80;99.90
42365;DHT22;28498;54.400;18.566;2022-12-07T06:21:30;2.80;99.90
42365;DHT22;28498;54.400;18.566;2022-12-07T06:26:25;2.80;99.90
42365;DHT22;28498;54.400;18.566;2022-12-07T06:28:51;2.70;99.90
42365;DHT22;28498;54.400;18.566;2022-12-07T06:31:18;2.80;99.90
42365;DHT22;28498;54.400;18.566;2022-12-07T06:33:45;2.80;99.90
42365;DHT22;28498;54.400;18.566;2022-12-07T06:36:12;2.70;99.90
42365;DHT22;28498;54.400;18.566;2022-12-07T06:38:39;2.60;99.90
42365;DHT22;28498;54.400;18.566;2022-12-07T06:41:06;2.60;99.90
42365;DHT22;28498;54.400;18.566;2022-12-07T06:43:33;2.70;99.90
42365;DHT22;28498;54.400;18.566;2022-12-07T06:46:00;2.70;99.90
42365;DHT22;28498;54.400;18.566;2022-12-07T06:50:55;2.60;99.90
42365;DHT22;28498;54.400;18.566;2022-12-07T06:53:22;2.60;99.90
42365;DHT22;28498;54.400;18.566;2022-12-07T06:55:49;2.60;99.90
42365;DHT22;28498;54.400;18.566;2022-12-07T06:58:16;2.70;99.90
42365;DHT22;28498;54.400;18.566;2022-12-07T07:00:44;2.60;99.90
42365;DHT22;28498;54.400;18.566;2022-12-07T07:05:38;2.50;99.90
42365;DHT22;28498;54.400;18.566;2022-12-07T07:08:05;2.40;99.90
42365;DHT22;28498;54.400;18.566;2022-12-07T07:10:48;2.40;99.90
42365;DHT22;28498;54.400;18.566;2022-12-07T07:15:43;2.40;99.90
42365;DHT22;28498;54.400;18.566;2022-12-07T07:18:10;2.40;99.90
42365;DHT22;28498;54.400;18.566;2022-12-07T07:20:37;2.40;99.90
42365;DHT22;28498;54.400;18.566;2022-12-07T07:23:04;2.50;99.90
42365;DHT22;28498;54.400;18.566;2022-12-07T07:25:32;2.50;99.90
42365;DHT22;28498;54.400;18.566;2022-12-07T07:30:27;2.60;99.90
42365;DHT22;28498;54.400;18.566;2022-12-07T07:33:01;2.50;99.90
42365;DHT22;28498;54.400;18.566;2022-12-07T07:35:29;2.50;99.90
42365;DHT22;28498;54.400;18.566;2022-12-07T07:37:56;2.50;99.90
42365;DHT22;28498;54.400;18.566;2022-12-07T07:40:25;2.50;99.90
42365;DHT22;28498;54.400;18.566;2022-12-07T07:42:53;2.60;99.90
42365;DHT22;28498;54.400;18.566;2022-12-07T07:45:21;2.60;99.90
42365;DHT22;28498;54.400;18.566;2022-12-07T07:47:49;2.60;99.90
42365;DHT22;28498;54.400;18.566;2022-12-07T07:50:17;2.70;99.90
42365;DHT22;28498;54.400;18.566;2022-12-07T07:52:44;2.70;99.90
42365;DHT22;28498;54.400;18.566;2022-12-07T07:55:12;2.70;99.90
42365;DHT22;28498;54.400;18.566;2022-12-07T07:57:40;2.80;99.90
42365;DHT22;28498;54.400;18.566;2022-12-07T08:00:13;2.80;99.90
42365;DHT22;28498;54.400;18.566;2022-12-07T08:02:41;2.90;99.90
42365;DHT22;28498;54.400;18.566;2022-12-07T08:05:11;2.80;99.90
42365;DHT22;28498;54.400;18.566;2022-12-07T08:07:40;2.90;99.90
42365;DHT22;28498;54.400;18.566;2022-12-07T08:10:09;2.90;99.90
42365;DHT22;28498;54.400;18.566;2022-12-07T08:12:38;2.90;99.90
42365;DHT22;28498;54.400;18.566;2022-12-07T08:15:28;2.90;99.90
42365;DHT22;28498;54.400;18.566;2022-12-07T08:17:55;2.90;99.90
42365;DHT22;28498;54.400;18.566;2022-12-07T08:22:49;3.00;99.90
42365;DHT22;28498;54.400;18.566;2022-12-07T08:25:16;3.00;99.90
42365;DHT22;28498;54.400;18.566;2022-12-07T08:27:43;3.00;99.90
42365;DHT22;28498;54.400;18.566;2022-12-07T08:30:10;2.90;99.90
42365;DHT22;28498;54.400;18.566;2022-12-07T08:32:37;3.00;99.90
42365;DHT22;28498;54.400;18.566;2022-12-07T08:35:05;2.80;99.90
42365;DHT22;28498;54.400;18.566;2022-12-07T08:39:59;3.10;99.90
42365;DHT22;28498;54.400;18.566;2022-12-07T08:42:27;3.10;99.90
42365;DHT22;28498;54.400;18.566;2022-12-07T08:44:57;3.10;99.90
42365;DHT22;28498;54.400;18.566;2022-12-07T08:47:24;3.00;99.90
42365;DHT22;28498;54.400;18.566;2022-12-07T08:49:52;3.00;99.90
42365;DHT22;28498;54.400;18.566;2022-12-07T08:52:19;3.00;99.90
42365;DHT22;28498;54.400;18.566;2022-12-07T08:54:47;3.10;99.90
42365;DHT22;28498;54.400;18.566;2022-12-07T08:59:41;3.20;99.90
42365;DHT22;28498;54.400;18.566;2022-12-07T09:04:35;3.00;99.90
42365;DHT22;28498;54.400;18.566;2022-12-07T09:07:02;3.10;99.90
42365;DHT22;28498;54.400;18.566;2022-12-07T09:09:29;3.10;99.90
42365;DHT22;28498;54.400;18.566;2022-12-07T09:14:24;3.10;99.90
42365;DHT22;28498;54.400;18.566;2022-12-07T09:16:51;3.10;99.90
42365;DHT22;28498;54.400;18.566;2022-12-07T09:19:19;3.00;99.90
42365;DHT22;28498;54.400;18.566;2022-12-07T09:21:46;3.10;99.90
42365;DHT22;28498;54.400;18.566;2022-12-07T09:24:13;3.00;99.90
42365;DHT22;28498;54.400;18.566;2022-12-07T09:32:56;2.90;99.90
42365;DHT22;28498;54.400;18.566;2022-12-07T09:35:25;2.90;99.90
42365;DHT22;28498;54.400;18.566;2022-12-07T09:37:53;3.00;99.90
42365;DHT22;28498;54.400;18.566;2022-12-07T09:40:21;3.00;99.90
42365;DHT22;28498;54.400;18.566;2022-12-07T09:42:52;2.90;99.90
42365;DHT22;28498;54.400;18.566;2022-12-07T09:45:27;3.00;99.90
42365;DHT22;28498;54.400;18.566;2022-12-07T09:47:55;3.10;99.90
42365;DHT22;28498;54.400;18.566;2022-12-07T09:50:26;3.20;99.90
42365;DHT22;28498;54.400;18.566;2022-12-07T09:53:07;3.20;99.90
42365;DHT22;28498;54.400;18.566;2022-12-07T09:55:36;3.30;99.90
42365;DHT22;28498;54.400;18.566;2022-12-07T09:58:03;3.20;99.90
42365;DHT22;28498;54.400;18.566;2022-12-07T10:00:30;3.10;99.90
42365;DHT22;28498;54.400;18.566;2022-12-07T10:03:02;3.30;99.90
42365;DHT22;28498;54.400;18.566;2022-12-07T10:08:02;3.30;99.90
42365;DHT22;28498;54.400;18.566;2022-12-07T10:10:33;3.10;99.90
42365;DHT22;28498;54.400;18.566;2022-12-07T10:13:08;3.20;99.90
42365;DHT22;28498;54.400;18.566;2022-12-07T10:15:55;3.30;99.90
42365;DHT22;28498;54.400;18.566;2022-12-07T10:18:37;3.10;99.90
42365;DHT22;28498;54.400;18.566;2022-12-07T10:21:14;3.00;99.90
42365;DHT22;28498;54.400;18.566;2022-12-07T10:26:36;3.10;99.90
42365;DHT22;28498;54.400;18.566;2022-12-07T10:31:42;3.10;99.90
42365;DHT22;28498;54.400;18.566;2022-12-07T10:34:25;3.00;99.90
42365;DHT22;28498;54.400;18.566;2022-12-07T10:36:53;3.00;99.90
42365;DHT22;28498;54.400;18.566;2022-12-07T10:39:56;3.00;99.90
42365;DHT22;28498;54.400;18.566;2022-12-07T10:42:25;2.90;99.90
42365;DHT22;28498;54.400;18.566;2022-12-07T11:01:36;3.00;99.90
42365;DHT22;28498;54.400;18.566;2022-12-07T11:07:07;2.90;99.90
42365;DHT22;28498;54.400;18.566;2022-12-07T11:20:49;2.90;99.90
42365;DHT22;28498;54.400;18.566;2022-12-07T11:26:23;2.90;99.90
42365;DHT22;28498;54.400;18.566;2022-12-07T11:29:17;3.00;99.90
42365;DHT22;28498;54.400;18.566;2022-12-07T11:35:11;3.00;99.90
42365;DHT22;28498;54.400;18.566;2022-12-07T11:40:29;3.20;99.90
42365;DHT22;28498;54.400;18.566;2022-12-07T11:46:10;3.00;99.90
42365;DHT22;28498;54.400;18.566;2022-12-07T11:48:44;2.70;99.90
42365;DHT22;28498;54.400;18.566;2022-12-07T11:51:12;2.80;99.90
42365;DHT22;28498;54.400;18.566;2022-12-07T11:54:26;2.70;99.90
42365;DHT22;28498;54.400;18.566;2022-12-07T11:56:35;2.60;99.90
42365;DHT22;28498;54.400;18.566;2022-12-07T11:59:23;2.60;99.90
42365;DHT22;28498;54.400;18.566;2022-12-07T12:01:53;2.60;99.90
42365;DHT22;28498;54.400;18.566;2022-12-07T12:04:43;2.60;99.90
42365;DHT22;28498;54.400;18.566;2022-12-07T12:07:19;2.60;99.90
42365;DHT22;28498;54.400;18.566;2022-12-07T12:10:22;2.50;99.90
42365;DHT22;28498;54.400;18.566;2022-12-07T12:18:28;2.60;99.90
42365;DHT22;28498;54.400;18.566;2022-12-07T12:21:06;2.70;99.90
42365;DHT22;28498;54.400;18.566;2022-12-07T12:23:59;2.70;99.90
42365;DHT22;28498;54.400;18.566;2022-12-07T12:26:30;2.60;99.90
42365;DHT22;28498;54.400;18.566;2022-12-07T12:29:00;2.70;99.90
42365;DHT22;28498;54.400;18.566;2022-12-07T12:34:00;2.60;99.90
42365;DHT22;28498;54.400;18.566;2022-12-07T12:36:43;2.70;99.90
42365;DHT22;28498;54.400;18.566;2022-12-07T12:47:04;2.60;99.90
42365;DHT22;28498;54.400;18.566;2022-12-07T12:50:18;2.70;99.90
42365;DHT22;28498;54.400;18.566;2022-12-07T12:53:03;2.70;99.90
42365;DHT22;28498;54.400;18.566;2022-12-07T12:55:54;2.50;99.90
42365;DHT22;28498;54.400;18.566;2022-12-07T12:58:38;2.70;99.90
42365;DHT22;28498;54.400;18.566;2022-12-07T13:01:35;2.60;99.90
42365;DHT22;28498;54.400;18.566;2022-12-07T13:04:24;2.60;99.90
42365;DHT22;28498;54.400;18.566;2022-12-07T13:06:52;2.60;99.90
42365;DHT22;28498;54.400;18.566;2022-12-07T13:09:28;2.60;99.90
42365;DHT22;28498;54.400;18.566;2022-12-07T13:12:12;2.60;99.90
42365;DHT22;28498;54.400;18.566;2022-12-07T13:14:51;2.50;99.90
42365;DHT22;28498;54.400;18.566;2022-12-07T13:25:30;2.50;99.90
42365;DHT22;28498;54.400;18.566;2022-12-07T13:28:23;2.60;99.90
42365;DHT22;28498;54.400;18.566;2022-12-07T13:31:03;2.50;99.90
42365;DHT22;28498;54.400;18.566;2022-12-07T13:33:34;2.50;99.90
42365;DHT22;28498;54.400;18.566;2022-12-07T13:38:34;2.50;99.90
42365;DHT22;28498;54.400;18.566;2022-12-07T13:41:13;2.50;99.90
42365;DHT22;28498;54.400;18.566;2022-12-07T13:43:45;2.40;99.90
42365;DHT22;28498;54.400;18.566;2022-12-07T13:48:49;2.40;99.90
42365;DHT22;28498;54.400;18.566;2022-12-07T13:51:25;2.50;99.90
42365;DHT22;28498;54.400;18.566;2022-12-07T13:53:55;2.40;99.90
42365;DHT22;28498;54.400;18.566;2022-12-07T13:56:27;2.40;99.90
42365;DHT22;28498;54.400;18.566;2022-12-07T14:01:24;2.30;99.90
42365;DHT22;28498;54.400;18.566;2022-12-07T14:03:52;2.20;99.90
42365;DHT22;28498;54.400;18.566;2022-12-07T14:06:28;2.10;99.90
42365;DHT22;28498;54.400;18.566;2022-12-07T14:09:18;2.10;99.90
42365;DHT22;28498;54.400;18.566;2022-12-07T14:11:48;2.00;99.90
42365;DHT22;28498;54.400;18.566;2022-12-07T14:14:19;2.00;99.90
42365;DHT22;28498;54.400;18.566;2022-12-07T14:17:19;2.00;99.90
42365;DHT22;28498;54.400;18.566;2022-12-07T14:20:03;2.00;99.90
42365;DHT22;28498;54.400;18.566;2022-12-07T14:22:37;1.90;99.90
42365;DHT22;28498;54.400;18.566;2022-12-07T14:25:18;2.00;99.90
42365;DHT22;28498;54.400;18.566;2022-12-07T14:30:24;1.90;99.90
42365;DHT22;28498;54.400;18.566;2022-12-07T14:32:54;1.90;99.90
42365;DHT22;28498;54.400;18.566;2022-12-07T14:35:21;1.90;99.90
42365;DHT22;28498;54.400;18.566;2022-12-07T14:37:49;1.90;99.90
42365;DHT22;28498;54.400;18.566;2022-12-07T14:40:25;1.90;99.90
42365;DHT22;28498;54.400;18.566;2022-12-07T14:43:08;1.90;99.90
42365;DHT22;28498;54.400;18.566;2022-12-07T14:48:03;1.90;99.90
42365;DHT22;28498;54.400;18.566;2022-12-07T14:50:52;2.00;99.90
42365;DHT22;28498;54.400;18.566;2022-12-07T14:53:45;2.00;99.90
42365;DHT22;28498;54.400;18.566;2022-12-07T14:56:19;2.00;99.90
42365;DHT22;28498;54.400;18.566;2022-12-07T14:58:45;2.00;99.90
42365;DHT22;28498;54.400;18.566;2022-12-07T15:01:14;1.90;99.90
42365;DHT22;28498;54.400;18.566;2022-12-07T15:03:41;1.90;99.90
42365;DHT22;28498;54.400;18.566;2022-12-07T15:06:14;1.80;99.90
42365;DHT22;28498;54.400;18.566;2022-12-07T15:11:15;2.00;99.90
42365;DHT22;28498;54.400;18.566;2022-12-07T15:13:42;1.90;99.90
42365;DHT22;28498;54.400;18.566;2022-12-07T15:16:28;1.70;99.90
42365;DHT22;28498;54.400;18.566;2022-12-07T15:19:20;1.80;99.90
42365;DHT22;28498;54.400;18.566;2022-12-07T15:21:55;1.80;99.90
42365;DHT22;28498;54.400;18.566;2022-12-07T15:24:22;1.80;99.90
42365;DHT22;28498;54.400;18.566;2022-12-07T15:26:50;2.20;99.90
42365;DHT22;28498;54.400;18.566;2022-12-07T15:29:18;1.70;99.90
42365;DHT22;28498;54.400;18.566;2022-12-07T15:31:51;1.80;99.90
42365;DHT22;28498;54.400;18.566;2022-12-07T15:34:24;1.80;99.90
42365;DHT22;28498;54.400;18.566;2022-12-07T15:36:52;1.80;99.90
42365;DHT22;28498;54.400;18.566;2022-12-07T15:39:19;1.80;99.90
42365;DHT22;28498;54.400;18.566;2022-12-07T15:41:53;1.80;99.90
42365;DHT22;28498;54.400;18.566;2022-12-07T15:44:20;1.80;99.90
42365;DHT22;28498;54.400;18.566;2022-12-07T15:47:06;1.70;99.90
42365;DHT22;28498;54.400;18.566;2022-12-07T15:49:33;1.80;99.90
42365;DHT22;28498;54.400;18.566;2022-12-07T15:52:00;1.80;99.90
42365;DHT22;28498;54.400;18.566;2022-12-07T15:54:28;1.80;99.90
42365;DHT22;28498;54.400;18.566;2022-12-07T15:56:56;1.90;99.90
42365;DHT22;28498;54.400;18.566;2022-12-07T15:59:23;1.90;99.90
42365;DHT22;28498;54.400;18.566;2022-12-07T16:01:51;1.80;99.90
42365;DHT22;28498;54.400;18.566;2022-12-07T16:04:19;1.90;99.90
42365;DHT22;28498;54.400;18.566;2022-12-07T16:06:46;1.70;99.90
42365;DHT22;28498;54.400;18.566;2022-12-07T16:09:13;1.80;99.90
42365;DHT22;28498;54.400;18.566;2022-12-07T16:14:07;1.80;99.90
42365;DHT22;28498;54.400;18.566;2022-12-07T16:16:34;1.70;99.90
42365;DHT22;28498;54.400;18.566;2022-12-07T16:19:01;1.80;99.90
42365;DHT22;28498;54.400;18.566;2022-12-07T16:21:29;1.60;99.90
42365;DHT22;28498;54.400;18.566;2022-12-07T16:23:57;1.70;99.90
42365;DHT22;28498;54.400;18.566;2022-12-07T16:26:25;1.80;99.90
42365;DHT22;28498;54.400;18.566;2022-12-07T16:28:53;1.80;99.90
42365;DHT22;28498;54.400;18.566;2022-12-07T16:31:22;1.80;99.90
42365;DHT22;28498;54.400;18.566;2022-12-07T16:33:52;1.70;99.90
42365;DHT22;28498;54.400;18.566;2022-12-07T16:36:19;1.70;99.90
42365;DHT22;28498;54.400;18.566;2022-12-07T16:39:09;1.70;99.90
42365;DHT22;28498;54.400;18.566;2022-12-07T16:41:36;1.70;99.90
42365;DHT22;28498;54.400;18.566;2022-12-07T16:44:07;1.80;99.90
42365;DHT22;28498;54.400;18.566;2022-12-07T16:46:35;1.70;99.90
42365;DHT22;28498;54.400;18.566;2022-12-07T16:49:03;2.20;99.90
42365;DHT22;28498;54.400;18.566;2022-12-07T16:53:58;1.60;99.90
42365;DHT22;28498;54.400;18.566;2022-12-07T16:56:25;1.50;99.90
42365;DHT22;28498;54.400;18.566;2022-12-07T16:58:53;1.60;99.90
42365;DHT22;28498;54.400;18.566;2022-12-07T17:01:22;1.40;99.90
42365;DHT22;28498;54.400;18.566;2022-12-07T17:03:56;1.30;99.90
42365;DHT22;28498;54.400;18.566;2022-12-07T17:06:26;1.40;99.90
42365;DHT22;28498;54.400;18.566;2022-12-07T17:08:55;1.10;99.90
42365;DHT22;28498;54.400;18.566;2022-12-07T17:11:25;1.20;99.90
42365;DHT22;28498;54.400;18.566;2022-12-07T17:13:53;1.20;99.90
42365;DHT22;28498;54.400;18.566;2022-12-07T17:16:39;1.20;99.90
42365;DHT22;28498;54.400;18.566;2022-12-07T17:19:08;1.30;99.90
42365;DHT22;28498;54.400;18.566;2022-12-07T17:21:35;1.20;99.90
42365;DHT22;28498;54.400;18.566;2022-12-07T17:24:04;1.20;99.90
42365;DHT22;28498;54.400;18.566;2022-12-07T17:26:31;1.20;99.90
42365;DHT22;28498;54.400;18.566;2022-12-07T17:29:03;1.20;99.90
42365;DHT22;28498;54.400;18.566;2022-12-07T17:31:30;1.10;99.90
42365;DHT22;28498;54.400;18.566;2022-12-07T17:33:59;1.10;99.90
42365;DHT22;28498;54.400;18.566;2022-12-07T17:36:29;1.20;99.90
42365;DHT22;28498;54.400;18.566;2022-12-07T17:38:56;1.20;99.90
42365;DHT22;28498;54.400;18.566;2022-12-07T17:41:25;1.10;99.90
42365;DHT22;28498;54.400;18.566;2022-12-07T17:44:17;1.10;99.90
42365;DHT22;28498;54.400;18.566;2022-12-07T17:46:46;1.10;99.90
42365;DHT22;28498;54.400;18.566;2022-12-07T17:49:13;1.20;99.90
42365;DHT22;28498;54.400;18.566;2022-12-07T17:51:41;1.20;99.90
42365;DHT22;28498;54.400;18.566;2022-12-07T17:54:26;1.20;99.90
42365;DHT22;28498;54.400;18.566;2022-12-07T17:56:54;1.20;99.90
42365;DHT22;28498;54.400;18.566;2022-12-07T17:59:21;1.10;99.90
42365;DHT22;28498;54.400;18.566;2022-12-07T18:01:48;1.20;99.90
42365;DHT22;28498;54.400;18.566;2022-12-07T18:04:16;1.30;99.90
42365;DHT22;28498;54.400;18.566;2022-12-07T18:06:42;1.50;99.90
42365;DHT22;28498;54.400;18.566;2022-12-07T18:09:17;1.30;99.90
42365;DHT22;28498;54.400;18.566;2022-12-07T18:16:39;1.10;99.90
42365;DHT22;28498;54.400;18.566;2022-12-07T18:19:06;1.20;99.90
42365;DHT22;28498;54.400;18.566;2022-12-07T18:24:02;1.20;99.90
42365;DHT22;28498;54.400;18.566;2022-12-07T18:26:32;1.30;99.90
42365;DHT22;28498;54.400;18.566;2022-12-07T18:29:01;1.20;99.90
42365;DHT22;28498;54.400;18.566;2022-12-07T18:34:00;1.20;99.90
42365;DHT22;28498;54.400;18.566;2022-12-07T18:38:54;0.90;99.90
42365;DHT22;28498;54.400;18.566;2022-12-07T18:41:21;1.00;99.90
42365;DHT22;28498;54.400;18.566;2022-12-07T18:43:48;0.90;99.90
42365;DHT22;28498;54.400;18.566;2022-12-07T18:46:17;0.80;99.90
42365;DHT22;28498;54.400;18.566;2022-12-07T18:48:45;0.80;99.90
42365;DHT22;28498;54.400;18.566;2022-12-07T18:51:14;0.70;99.90